createdAt,value
2023-01-19T00:02:02.418Z,97402.20
2023-01-19T00:04:34.110Z,97398.30
2023-01-19T00:07:05.829Z,97401.89
2023-01-19T00:09:38.384Z,97398.45
2023-01-19T00:12:10.468Z,97403.45
2023-01-19T00:14:42.198Z,97407.51
2023-01-19T00:17:13.932Z,97410.02
2023-01-19T00:19:45.653Z,97411.52
2023-01-19T00:22:17.552Z,97415.50
2023-01-19T00:24:50.395Z,97413.81
2023-01-19T00:27:22.095Z,97411.63
2023-01-19T00:29:53.819Z,97409.95
2023-01-19T00:32:25.511Z,97410.67
2023-01-19T00:34:57.233Z,97413.38
2023-01-19T00:37:28.982Z,97416.97
2023-01-19T00:40:00.741Z,97415.14
2023-01-19T00:42:41.476Z,97419.02
2023-01-19T00:45:15.729Z,97418.98
2023-01-19T00:47:47.976Z,97417.95
2023-01-19T00:50:19.882Z,97419.70
2023-01-19T00:52:53.122Z,97412.52
2023-01-19T00:55:24.873Z,97412.59
2023-01-19T00:57:57.092Z,97406.50
2023-01-19T01:00:29.108Z,97399.59
2023-01-19T01:03:01.565Z,97402.52
2023-01-19T01:05:33.555Z,97396.64
2023-01-19T01:08:05.565Z,97402.95
2023-01-19T01:10:37.271Z,97396.12
2023-01-19T01:13:23.704Z,97393.42
2023-01-19T01:15:58.208Z,97390.69
2023-01-19T01:18:30.953Z,97394.66
2023-01-19T01:21:07.377Z,97391.24
2023-01-19T01:23:39.136Z,97400.13
2023-01-19T01:26:10.905Z,97394.83
2023-01-19T01:28:42.616Z,97393.64
2023-01-19T01:31:14.407Z,97395.02
2023-01-19T01:33:46.156Z,97396.86
2023-01-19T01:36:18.967Z,97407.91
2023-01-19T01:38:50.999Z,97417.16
2023-01-19T01:41:25.468Z,97418.09
2023-01-19T01:44:01.628Z,97418.11
2023-01-19T01:46:34.074Z,97410.96
2023-01-19T01:49:09.235Z,97404.70
2023-01-19T01:51:47.022Z,97408.73
2023-01-19T01:54:22.602Z,97411.02
2023-01-19T01:56:58.299Z,97403.46
2023-01-19T01:59:34.861Z,97397.65
2023-01-19T02:02:26.494Z,97398.48
2023-01-19T02:05:04.167Z,97411.17
2023-01-19T02:08:03.112Z,97414.22
2023-01-19T02:10:52.787Z,97411.38
2023-01-19T02:13:25.569Z,97416.48
2023-01-19T02:16:00.839Z,97419.69
2023-01-19T02:18:33.769Z,97419.85
2023-01-19T02:21:12.174Z,97421.78
2023-01-19T02:23:47.002Z,97424.73
2023-01-19T02:26:23.168Z,97423.20
2023-01-19T02:28:59.445Z,97426.27
2023-01-19T02:31:33.651Z,97424.88
2023-01-19T02:34:07.091Z,97429.13
2023-01-19T02:36:39.699Z,97431.51
2023-01-19T02:39:12.216Z,97436.23
2023-01-19T02:41:49.722Z,97431.86
2023-01-19T02:44:23.633Z,97429.94
2023-01-19T02:46:57.817Z,97428.54
2023-01-19T02:49:31.771Z,97425.09
2023-01-19T02:52:04.428Z,97426.35
2023-01-19T02:54:47.776Z,97431.34
2023-01-19T02:57:43.660Z,97434.02
2023-01-19T03:00:26.458Z,97429.08
2023-01-19T03:03:15.621Z,97428.80
2023-01-19T03:06:04.870Z,97430.17
2023-01-19T03:08:49.506Z,97433.14
2023-01-19T03:11:24.772Z,97441.48
2023-01-19T03:14:01.745Z,97436.18
2023-01-19T03:16:40.713Z,97430.53
2023-01-19T03:19:19.119Z,97434.70
2023-01-19T03:21:56.120Z,97429.91
2023-01-19T03:24:30.735Z,97432.73
2023-01-19T03:27:06.668Z,97430.17
2023-01-19T03:29:42.606Z,97430.33
2023-01-19T03:32:18.401Z,97426.17
2023-01-19T03:34:52.521Z,97429.30
2023-01-19T03:37:26.736Z,97427.64
2023-01-19T03:39:58.774Z,97433.99
2023-01-19T03:42:31.200Z,97434.41
2023-01-19T03:45:03.912Z,97435.61
2023-01-19T03:47:36.530Z,97431.17
2023-01-19T03:50:14.692Z,97438.48
2023-01-19T03:52:46.392Z,97441.49
2023-01-19T03:55:18.126Z,97441.78
2023-01-19T03:57:49.816Z,97450.02
2023-01-19T04:00:22.130Z,97451.98
2023-01-19T04:02:53.940Z,97456.12
2023-01-19T04:05:26.278Z,97453.85
2023-01-19T04:07:58.247Z,97451.16
2023-01-19T04:10:29.978Z,97454.02
2023-01-19T04:13:02.860Z,97455.52
2023-01-19T04:15:35.007Z,97454.02
2023-01-19T04:18:07.245Z,97462.61
2023-01-19T04:20:39.816Z,97460.42
2023-01-19T04:23:11.597Z,97459.73
2023-01-19T04:25:43.262Z,97461.92
2023-01-19T04:28:15.649Z,97469.16
2023-01-19T04:30:50.772Z,97474.72
2023-01-19T04:33:23.364Z,97478.83
2023-01-19T04:35:56.127Z,97480.04
2023-01-19T04:38:28.331Z,97477.13
2023-01-19T04:41:00.052Z,97478.60
2023-01-19T04:43:31.834Z,97484.90
2023-01-19T04:46:03.651Z,97489.03
2023-01-19T04:48:35.745Z,97478.43
2023-01-19T04:51:08.508Z,97475.13
2023-01-19T04:53:40.229Z,97483.20
2023-01-19T04:56:12.424Z,97494.85
2023-01-19T04:58:44.277Z,97499.40
2023-01-19T05:01:16.004Z,97506.39
2023-01-19T05:03:47.703Z,97509.23
2023-01-19T05:06:19.544Z,97510.00
2023-01-19T05:08:51.463Z,97516.45
2023-01-19T05:11:23.142Z,97519.43
2023-01-19T05:13:54.954Z,97523.20
2023-01-19T05:16:26.732Z,97522.00
2023-01-19T05:18:58.616Z,97522.78
2023-01-19T05:21:30.921Z,97526.44
2023-01-19T05:24:02.870Z,97523.11
2023-01-19T05:26:34.583Z,97523.25
2023-01-19T05:29:06.231Z,97519.55
2023-01-19T05:31:38.316Z,97516.52
2023-01-19T05:34:12.026Z,97510.20
2023-01-19T05:36:43.956Z,97509.40
2023-01-19T05:39:15.991Z,97509.16
2023-01-19T05:41:47.790Z,97510.08
2023-01-19T05:44:19.531Z,97505.06
2023-01-19T05:46:51.357Z,97496.04
2023-01-19T05:49:23.081Z,97490.66
2023-01-19T05:51:54.798Z,97488.98
2023-01-19T05:54:26.679Z,97490.98
2023-01-19T05:56:58.452Z,97495.94
2023-01-19T05:59:30.343Z,97500.98
2023-01-19T06:02:02.174Z,97494.16
2023-01-19T06:04:34.125Z,97493.77
2023-01-19T06:07:06.457Z,97495.77
2023-01-19T06:09:38.230Z,97494.89
2023-01-19T06:12:10.364Z,97492.95
2023-01-19T06:14:42.160Z,97484.77
2023-01-19T06:17:13.864Z,97487.68
2023-01-19T06:19:45.577Z,97492.91
2023-01-19T06:22:17.448Z,97503.52
2023-01-19T06:24:49.134Z,97499.67
2023-01-19T06:27:20.849Z,97503.13
2023-01-19T06:29:52.530Z,97514.77
2023-01-19T06:32:24.213Z,97524.58
2023-01-19T06:34:55.977Z,97531.92
2023-01-19T06:37:28.620Z,97539.13
2023-01-19T06:40:00.636Z,97539.33
2023-01-19T06:42:32.569Z,97543.92
2023-01-19T06:45:04.869Z,97544.33
2023-01-19T06:47:36.678Z,97547.55
2023-01-19T06:50:10.806Z,97551.15
2023-01-19T06:52:42.817Z,97557.42
2023-01-19T06:55:16.285Z,97566.88
2023-01-19T06:57:48.068Z,97575.63
2023-01-19T07:00:21.991Z,97589.31
2023-01-19T07:02:53.876Z,97604.37
2023-01-19T07:05:25.661Z,97614.21
2023-01-19T07:07:58.481Z,97615.23
2023-01-19T07:11:25.464Z,97620.20
2023-01-19T07:13:21.962Z,97627.31
2023-01-19T07:15:53.902Z,97624.39
2023-01-19T07:18:25.711Z,97628.73
2023-01-19T07:20:59.739Z,97633.52
2023-01-19T07:23:31.778Z,97632.98
2023-01-19T07:26:03.973Z,97630.20
2023-01-19T07:28:36.996Z,97630.39
2023-01-19T07:31:09.753Z,97625.54
2023-01-19T07:33:41.560Z,97633.02
2023-01-19T07:36:14.643Z,97636.98
2023-01-19T07:38:46.593Z,97634.67
2023-01-19T07:41:18.423Z,97637.98
2023-01-19T07:43:52.719Z,97642.83
2023-01-19T07:46:24.474Z,97639.14
2023-01-19T07:48:56.348Z,97630.05
2023-01-19T07:51:28.045Z,97621.41
2023-01-19T07:53:59.762Z,97616.08
2023-01-19T07:56:33.879Z,97618.09
2023-01-19T07:59:07.386Z,97618.86
2023-01-19T08:01:39.241Z,97630.59
2023-01-19T08:04:11.560Z,97633.67
2023-01-19T08:06:46.244Z,97642.96
2023-01-19T08:09:18.132Z,97644.80
2023-01-19T08:11:49.909Z,97649.36
2023-01-19T08:14:21.716Z,97661.64
2023-01-19T08:16:53.430Z,97658.55
2023-01-19T08:19:25.219Z,97659.52
2023-01-19T08:21:58.860Z,97669.70
2023-01-19T08:24:31.566Z,97668.00
2023-01-19T08:27:04.180Z,97671.65
2023-01-19T08:29:35.866Z,97675.77
2023-01-19T08:32:08.252Z,97667.04
2023-01-19T08:34:40.048Z,97667.42
2023-01-19T08:37:11.827Z,97677.70
2023-01-19T08:39:43.535Z,97661.79
2023-01-19T08:42:15.372Z,97648.19
2023-01-19T08:44:57.711Z,97654.25
2023-01-19T08:47:30.233Z,97672.83
2023-01-19T08:50:02.015Z,97658.77
2023-01-19T08:52:33.715Z,97649.38
2023-01-19T08:55:06.216Z,97655.69
2023-01-19T08:57:37.952Z,97658.00
2023-01-19T09:00:11.660Z,97661.67
2023-01-19T09:02:43.563Z,97661.86
2023-01-19T09:05:15.507Z,97658.78
2023-01-19T09:07:48.058Z,97668.02
2023-01-19T09:10:20.657Z,97679.53
2023-01-19T09:12:52.547Z,97692.64
2023-01-19T09:15:24.347Z,97688.15
2023-01-19T09:17:56.076Z,97700.34
2023-01-19T09:20:28.570Z,97707.95
2023-01-19T09:23:00.685Z,97697.30
2023-01-19T09:25:32.780Z,97696.19
2023-01-19T09:28:05.421Z,97710.35
2023-01-19T09:30:37.730Z,97710.04
2023-01-19T09:33:11.679Z,97706.52
2023-01-19T09:35:45.234Z,97712.92
2023-01-19T09:38:16.783Z,97712.66
2023-01-19T09:40:52.471Z,97705.30
2023-01-19T09:43:42.113Z,97697.24
2023-01-19T09:46:18.567Z,97694.36
2023-01-19T09:48:53.579Z,97689.93
2023-01-19T09:51:27.449Z,97687.02
2023-01-19T09:54:07.610Z,97683.44
2023-01-19T09:56:39.799Z,97694.59
2023-01-19T09:59:23.242Z,97695.60
2023-01-19T10:02:21.748Z,97695.58
2023-01-19T10:05:01.573Z,97690.34
2023-01-19T10:07:53.269Z,97687.30
2023-01-19T10:10:28.217Z,97678.59
2023-01-19T10:13:15.157Z,97683.17
2023-01-19T10:15:57.249Z,97681.71
2023-01-19T10:18:35.775Z,97677.57
2023-01-19T10:21:13.868Z,97670.88
2023-01-19T10:23:49.216Z,97667.21
2023-01-19T10:26:24.240Z,97667.52
2023-01-19T10:29:00.463Z,97665.85
2023-01-19T10:31:33.856Z,97657.05
2023-01-19T10:34:04.575Z,97652.77
2023-01-19T10:36:40.370Z,97653.77
2023-01-19T10:39:16.464Z,97656.33
2023-01-19T10:41:52.401Z,97650.74
2023-01-19T10:44:28.993Z,97654.06
2023-01-19T10:47:02.308Z,97662.77
2023-01-19T10:49:42.759Z,97660.48
2023-01-19T10:52:26.992Z,97665.89
2023-01-19T10:55:00.166Z,97668.55
2023-01-19T10:57:36.591Z,97666.89
2023-01-19T11:00:29.340Z,97655.92
2023-01-19T11:03:01.579Z,97653.29
2023-01-19T11:05:35.192Z,97650.98
2023-01-19T11:08:25.216Z,97652.25
2023-01-19T11:11:02.266Z,97652.20
2023-01-19T11:13:34.812Z,97650.47
2023-01-19T11:16:16.609Z,97651.07
2023-01-19T11:18:52.569Z,97645.50
2023-01-19T11:21:27.744Z,97645.25
2023-01-19T11:24:01.660Z,97633.33
2023-01-19T11:26:40.793Z,97629.91
2023-01-19T11:29:20.191Z,97626.27
2023-01-19T11:31:53.209Z,97627.18
2023-01-19T11:34:34.100Z,97617.14
2023-01-19T11:37:22.633Z,97626.56
2023-01-19T11:39:57.259Z,97626.59
2023-01-19T11:42:33.410Z,97628.88
2023-01-19T11:45:15.113Z,97628.31
2023-01-19T11:47:49.635Z,97635.08
2023-01-19T11:50:29.417Z,97634.67
2023-01-19T11:53:07.335Z,97632.06
2023-01-19T11:55:44.919Z,97632.50
2023-01-19T11:58:18.967Z,97632.33
2023-01-19T12:00:54.516Z,97634.34
2023-01-19T12:03:31.184Z,97638.89
2023-01-19T12:06:05.578Z,97637.66
2023-01-19T12:08:40.951Z,97632.61
2023-01-19T12:11:21.176Z,97627.12
2023-01-19T12:13:54.916Z,97628.16
2023-01-19T12:16:30.533Z,97629.84
2023-01-19T12:19:06.078Z,97637.19
2023-01-19T12:21:38.730Z,97641.70
2023-01-19T12:24:17.856Z,97637.67
2023-01-19T12:26:55.361Z,97643.61
2023-01-19T12:29:31.137Z,97638.11
2023-01-19T12:32:20.212Z,97636.98
2023-01-19T12:34:52.754Z,97633.17
2023-01-19T12:37:36.937Z,97632.95
2023-01-19T12:40:25.963Z,97633.73
2023-01-19T12:43:02.407Z,97634.17
2023-01-19T12:45:35.892Z,97635.27
2023-01-19T12:48:24.660Z,97637.42
2023-01-19T12:50:56.439Z,97637.59
2023-01-19T12:53:30.495Z,97637.10
2023-01-19T12:56:08.678Z,97639.93
2023-01-19T12:58:40.414Z,97645.67
2023-01-19T13:01:21.696Z,97645.45
2023-01-19T13:04:06.748Z,97639.95
2023-01-19T13:07:10.543Z,97638.66
2023-01-19T13:09:43.188Z,97641.12
2023-01-19T13:12:26.076Z,97647.15
2023-01-19T13:15:34.823Z,97646.50
2023-01-19T13:18:09.178Z,97647.20
2023-01-19T13:20:50.892Z,97654.11
2023-01-19T13:23:26.089Z,97649.40
2023-01-19T13:26:04.510Z,97655.64
2023-01-19T13:28:41.759Z,97659.84
2023-01-19T13:31:15.094Z,97667.44
2023-01-19T13:33:53.122Z,97668.97
2023-01-19T13:36:31.528Z,97670.37
2023-01-19T13:39:05.843Z,97671.24
2023-01-19T13:41:41.280Z,97678.56
2023-01-19T13:44:19.574Z,97685.84
2023-01-19T13:46:52.481Z,97690.45
2023-01-19T13:49:30.629Z,97687.77
2023-01-19T13:52:13.597Z,97687.59
2023-01-19T13:54:53.505Z,97686.80
2023-01-19T13:57:28.019Z,97686.94
2023-01-19T14:00:17.684Z,97696.69
2023-01-19T14:03:01.203Z,97697.83
2023-01-19T14:05:35.897Z,97699.91
2023-01-19T14:08:17.814Z,97700.87
2023-01-19T14:11:02.028Z,97705.23
2023-01-19T14:13:37.383Z,97707.78
2023-01-19T14:16:18.479Z,97708.84
2023-01-19T14:19:02.321Z,97710.55
2023-01-19T14:21:39.975Z,97715.40
2023-01-19T14:24:17.722Z,97714.52
2023-01-19T14:26:52.722Z,97713.26
2023-01-19T14:29:31.823Z,97712.98
2023-01-19T14:32:19.353Z,97715.91
2023-01-19T14:34:53.794Z,97717.27
2023-01-19T14:37:28.157Z,97717.81
2023-01-19T14:40:05.633Z,97723.34
2023-01-19T14:42:39.764Z,97724.41
2023-01-19T14:45:22.217Z,97722.41
2023-01-19T14:47:59.718Z,97724.12
2023-01-19T14:50:35.119Z,97731.36
2023-01-19T14:53:15.266Z,97732.96
2023-01-19T14:55:49.996Z,97731.18
2023-01-19T14:58:23.638Z,97731.25
2023-01-19T15:00:56.396Z,97730.09
2023-01-19T15:03:43.588Z,97732.96
2023-01-19T15:06:19.752Z,97735.36
2023-01-19T15:08:53.245Z,97733.23
2023-01-19T15:11:25.639Z,97733.95
2023-01-19T15:13:57.334Z,97734.38
2023-01-19T15:16:32.843Z,97738.77
2023-01-19T15:19:05.033Z,97736.84
2023-01-19T15:21:37.545Z,97736.18
2023-01-19T15:24:09.640Z,97735.92
2023-01-19T15:26:43.839Z,97733.21
2023-01-19T15:29:24.582Z,97739.52
2023-01-19T15:31:56.384Z,97735.30
2023-01-19T15:34:28.092Z,97739.94
2023-01-19T15:37:00.071Z,97741.32
2023-01-19T15:39:32.175Z,97742.32
2023-01-19T15:42:04.093Z,97740.23
2023-01-19T15:44:35.778Z,97745.29
2023-01-19T15:47:07.633Z,97748.53
2023-01-19T15:49:39.319Z,97746.29
2023-01-19T15:52:10.985Z,97748.08
2023-01-19T15:54:42.705Z,97745.73
2023-01-19T15:57:14.414Z,97749.57
2023-01-19T16:03:42.379Z,97756.80
2023-01-19T16:06:16.185Z,97753.99
2023-01-19T16:08:48.032Z,97757.21
2023-01-19T16:11:19.743Z,97755.30
2023-01-19T16:13:51.461Z,97759.09
2023-01-19T16:16:25.172Z,97763.63
2023-01-19T16:18:57.509Z,97771.48
2023-01-19T16:21:29.745Z,97770.13
2023-01-19T16:24:01.470Z,97774.02
2023-01-19T16:26:34.817Z,97778.30
2023-01-19T16:29:09.807Z,97784.54
2023-01-19T16:31:43.236Z,97785.64
2023-01-19T16:34:13.578Z,97789.46
2023-01-19T16:36:45.814Z,97787.48
2023-01-19T16:39:18.230Z,97790.41
2023-01-19T16:41:49.924Z,97787.27
2023-01-19T16:44:21.588Z,97790.86
2023-01-19T16:46:53.371Z,97796.02
2023-01-19T16:49:28.502Z,97800.58
2023-01-19T16:52:00.402Z,97794.34
2023-01-19T16:54:32.846Z,97798.14
2023-01-19T16:57:04.582Z,97792.33
2023-01-19T16:59:36.359Z,97797.63
2023-01-19T17:02:08.517Z,97799.70
2023-01-19T17:04:40.274Z,97801.73
2023-01-19T17:07:11.972Z,97800.33
2023-01-19T17:09:43.819Z,97798.42
2023-01-19T17:12:15.749Z,97798.94
2023-01-19T17:14:48.411Z,97794.33
2023-01-19T17:17:20.250Z,97797.55
2023-01-19T17:19:51.946Z,97801.19
2023-01-19T17:22:23.808Z,97793.05
2023-01-19T17:24:55.478Z,97793.86
2023-01-19T17:27:27.341Z,97794.92
2023-01-19T17:29:59.199Z,97794.90
2023-01-19T17:32:32.093Z,97796.48
2023-01-19T17:35:03.856Z,97797.19
2023-01-19T17:37:35.607Z,97798.56
2023-01-19T17:40:09.859Z,97801.23
2023-01-19T17:42:43.148Z,97794.55
2023-01-19T17:45:15.160Z,97797.40
2023-01-19T17:47:48.745Z,97802.38
2023-01-19T17:50:20.678Z,97797.14
2023-01-19T17:52:52.721Z,97798.55
2023-01-19T17:55:24.442Z,97805.57
2023-01-19T17:57:56.301Z,97810.32
2023-01-19T18:00:28.901Z,97812.77
2023-01-19T18:03:00.892Z,97811.82
2023-01-19T18:05:32.649Z,97814.15
2023-01-19T18:08:04.570Z,97808.97
2023-01-19T18:10:36.641Z,97816.06
2023-01-19T18:13:08.327Z,97817.44
2023-01-19T18:15:40.380Z,97819.44
2023-01-19T18:18:12.069Z,97821.67
2023-01-19T18:20:44.531Z,97824.77
2023-01-19T18:23:16.416Z,97821.55
2023-01-19T18:25:48.570Z,97826.45
2023-01-19T18:28:20.301Z,97825.77
2023-01-19T18:30:52.072Z,97832.27
2023-01-19T18:33:24.456Z,97833.28
2023-01-19T18:35:56.198Z,97835.02
2023-01-19T18:38:28.159Z,97828.81
2023-01-19T18:41:07.537Z,97824.01
2023-01-19T18:43:39.939Z,97823.98
2023-01-19T18:46:12.433Z,97833.04
2023-01-19T18:48:44.835Z,97836.82
2023-01-19T18:51:17.864Z,97841.83
2023-01-19T18:53:49.749Z,97841.66
2023-01-19T18:56:21.696Z,97844.65
2023-01-19T18:58:53.968Z,97848.17
2023-01-19T19:01:30.293Z,97846.02
2023-01-19T19:04:04.422Z,97847.52
2023-01-19T19:06:36.529Z,97848.64
2023-01-19T19:09:08.430Z,97846.36
2023-01-19T19:11:40.292Z,97850.16
2023-01-19T19:14:12.471Z,97855.20
2023-01-19T19:16:44.298Z,97863.04
2023-01-19T19:19:16.460Z,97871.70
2023-01-19T19:21:48.956Z,97873.96
2023-01-19T19:24:20.739Z,97879.02
2023-01-19T19:26:52.679Z,97878.30
2023-01-19T19:29:24.468Z,97879.94
2023-01-19T19:31:56.767Z,97885.05
2023-01-19T19:34:29.268Z,97889.60
2023-01-19T19:37:01.529Z,97891.57
2023-01-19T19:39:33.869Z,97898.53
2023-01-19T19:42:05.647Z,97902.45
2023-01-19T19:44:37.462Z,97908.55
2023-01-19T19:47:09.335Z,97910.45
2023-01-19T19:49:41.135Z,97920.36
2023-01-19T19:52:12.991Z,97923.14
2023-01-19T19:54:45.585Z,97924.27
2023-01-19T19:57:17.558Z,97921.52
2023-01-19T19:59:49.785Z,97921.05
2023-01-19T20:02:22.082Z,97924.96
2023-01-19T20:04:54.072Z,97932.49
2023-01-19T20:07:26.294Z,97939.57
2023-01-19T20:09:58.364Z,97944.37
2023-01-19T20:12:30.202Z,97941.14
2023-01-19T20:15:02.278Z,97939.46
2023-01-19T20:17:34.163Z,97938.77
2023-01-19T20:20:07.093Z,97944.36
2023-01-19T20:22:38.792Z,97948.30
2023-01-19T20:25:11.672Z,97950.24
2023-01-19T20:27:44.987Z,97952.58
2023-01-19T20:30:17.632Z,97957.39
2023-01-19T20:32:51.288Z,97962.43
2023-01-19T20:35:23.407Z,97971.35
2023-01-19T20:37:55.206Z,97969.42
2023-01-19T20:40:27.336Z,97973.66
2023-01-19T20:42:59.070Z,97976.45
2023-01-19T20:45:31.089Z,97986.50
2023-01-19T20:48:02.982Z,97982.27
2023-01-19T20:50:34.718Z,97985.64
2023-01-19T20:53:06.436Z,97993.77
2023-01-19T20:55:38.350Z,98000.92
2023-01-19T20:58:10.374Z,98007.88
2023-01-19T21:00:42.525Z,98007.76
2023-01-19T21:03:14.478Z,98011.11
2023-01-19T21:05:49.453Z,98013.50
2023-01-19T21:08:21.173Z,98011.82
2023-01-19T21:10:56.275Z,98009.55
2023-01-19T21:13:28.192Z,98006.81
2023-01-19T21:16:00.827Z,98008.00
2023-01-19T21:18:32.603Z,98004.89
2023-01-19T21:21:04.702Z,98003.52
2023-01-19T21:23:36.664Z,98005.81
2023-01-19T21:26:08.640Z,98006.71
2023-01-19T21:28:40.519Z,98010.97
2023-01-19T21:31:14.737Z,98014.40
2023-01-19T21:33:46.493Z,98018.26
2023-01-19T21:36:18.222Z,98015.91
2023-01-19T21:38:51.437Z,98021.70
2023-01-19T21:41:22.120Z,98026.02
2023-01-19T21:43:53.809Z,98032.15
2023-01-19T21:46:29.271Z,98027.77
2023-01-19T21:49:02.673Z,98029.94
2023-01-19T21:51:37.367Z,98031.58
2023-01-19T21:54:09.535Z,98033.41
2023-01-19T21:56:43.224Z,98037.66
2023-01-19T21:59:18.508Z,98044.45
2023-01-19T22:01:51.498Z,98052.67
2023-01-19T22:04:23.744Z,98053.23
2023-01-19T22:06:55.486Z,98054.70
2023-01-19T22:09:27.210Z,98058.46
2023-01-19T22:11:59.804Z,98056.42
2023-01-19T22:14:32.048Z,98054.75
2023-01-19T22:17:04.798Z,98051.38
2023-01-19T22:19:36.509Z,98052.97
2023-01-19T22:22:08.252Z,98055.99
2023-01-19T22:24:40.065Z,98057.69
2023-01-19T22:27:11.806Z,98062.80
2023-01-19T22:29:43.511Z,98063.16
2023-01-19T22:32:15.321Z,98061.59
2023-01-19T22:34:48.057Z,98065.34
2023-01-19T22:37:19.714Z,98068.12
2023-01-19T22:39:51.453Z,98070.48
2023-01-19T22:42:23.113Z,98072.84
2023-01-19T22:44:54.832Z,98070.10
2023-01-19T22:47:26.687Z,98071.11
2023-01-19T22:49:58.400Z,98070.58
2023-01-19T22:52:30.126Z,98070.89
2023-01-19T22:55:02.010Z,98072.40
2023-01-19T22:57:36.749Z,98073.05
2023-01-19T23:00:11.040Z,98075.04
2023-01-19T23:02:42.726Z,98082.45
2023-01-19T23:05:14.883Z,98084.65
2023-01-19T23:07:46.980Z,98086.36
2023-01-19T23:10:19.325Z,98086.06
2023-01-19T23:12:51.036Z,98089.17
2023-01-19T23:15:22.726Z,98087.65
2023-01-19T23:17:54.658Z,98088.54
2023-01-19T23:20:26.754Z,98083.87
2023-01-19T23:22:58.442Z,98088.83
2023-01-19T23:25:31.991Z,98084.57
2023-01-19T23:28:02.121Z,98089.46
2023-01-19T23:30:33.835Z,98095.33
2023-01-19T23:33:05.884Z,98099.92
2023-01-19T23:35:38.081Z,98100.21
2023-01-19T23:38:09.755Z,98100.09
